ΕΜΥ, Εθνική Μετεωρολογική Υπηρεσία - Δελτία Καιρού, Προγνώσεις

ΑΕΡΟΝΑΥΤΙΛΙΑ

GREEK AIRPORTS CODES

LGTT 212000Z AUTO VRB02KT //// -RA ////// 14/13 Q1015 RE// RMK 0.7MM=

EUROPEAN AIRPORTS CODES

EPWA 212030Z 12018KT 9999 OVC015 05/03 Q1019 NOSIG=